Time;durP1;ratioP1;P1;durP2;ratioP2;P2;SDS_P1;SDS_P2;PMS_P1;PMS_P2;Temp;Humidity;BMP_temperature;BMP_pressure;BME280_temperature;BME280_humidity;BME280_pressure;Samples;Min_cycle;Max_cycle;Signal;HPM_P1;HPM_P2
2022/06/08 00:02:07;;;;;;;8.90;3.25;;;;;;;14.97;44.80;100901.06;5075289;28;20155;-78
2022/06/08 00:04:33;;;;;;;7.60;3.08;;;;;;;14.96;44.97;100904.13;5075745;28;20546;-76
2022/06/08 00:06:59;;;;;;;5.13;2.67;;;;;;;14.94;44.41;100901.66;5079667;28;20131;-75
2022/06/08 00:09:24;;;;;;;6.32;2.80;;;;;;;14.91;45.32;100895.91;5072396;28;20529;-78
2022/06/08 00:11:50;;;;;;;7.00;3.00;;;;;;;14.89;44.99;100892.63;5072831;28;20044;-76
2022/06/08 00:14:16;;;;;;;10.38;3.80;;;;;;;14.87;44.84;100894.88;5077352;28;20036;-77
2022/06/08 00:16:41;;;;;;;8.50;3.03;;;;;;;14.86;45.62;100896.81;5078045;28;20066;-77
2022/06/08 00:19:07;;;;;;;8.98;3.75;;;;;;;14.83;45.33;100891.09;5076391;28;20036;-78
2022/06/08 00:21:33;;;;;;;7.07;3.53;;;;;;;14.80;45.89;100894.47;5073640;28;20415;-77
2022/06/08 00:23:59;;;;;;;7.75;3.58;;;;;;;14.74;45.33;100902.00;5072151;28;20046;-77
2022/06/08 00:26:25;;;;;;;7.05;3.45;;;;;;;14.71;45.73;100897.09;5083648;28;20036;-77
2022/06/08 00:28:51;;;;;;;6.38;3.28;;;;;;;14.66;45.56;100898.00;5084829;28;20409;-74
2022/06/08 00:31:17;;;;;;;8.75;3.58;;;;;;;14.62;45.82;100902.50;5074506;28;20035;-75
2022/06/08 00:33:45;;;;;;;10.30;3.30;;;;;;;14.60;46.55;100902.00;5068085;28;20093;-75
2022/06/08 00:36:11;;;;;;;9.32;3.40;;;;;;;14.60;46.63;100902.00;5085116;28;20037;-75
2022/06/08 00:38:37;;;;;;;7.25;3.35;;;;;;;14.58;46.12;100898.72;5091731;28;20107;-76
2022/06/08 00:41:38;;;;;;;9.80;3.47;;;;;;;14.55;46.93;100910.34;5091693;28;20036;-77
2022/06/08 00:44:09;;;;;;;6.93;3.38;;;;;;;14.53;46.84;100901.53;5083606;28;20521;-76
2022/06/08 00:46:35;;;;;;;7.65;3.70;;;;;;;14.53;46.98;100904.28;5081032;28;20499;-76
2022/06/08 00:49:11;;;;;;;5.15;3.00;;;;;;;14.51;46.49;100909.31;5070587;28;20051;-75
2022/06/08 00:51:38;;;;;;;8.60;3.28;;;;;;;14.48;46.91;100904.38;5059499;28;20394;-76
2022/06/08 00:54:07;;;;;;;7.97;3.10;;;;;;;14.45;46.58;100907.75;5071940;28;20486;-77
2022/06/08 00:56:39;;;;;;;7.03;2.78;;;;;;;14.42;47.37;100898.09;5077506;28;20422;-79
2022/06/08 00:59:05;;;;;;;11.30;3.17;;;;;;;14.38;47.21;100896.22;5067743;28;20129;-74
2022/06/08 01:01:31;;;;;;;5.35;3.22;;;;;;;14.34;46.89;100896.00;5075719;28;20093;-75
2022/06/08 01:04:09;;;;;;;10.77;3.28;;;;;;;14.31;47.41;100899.38;5070718;28;20040;-75
2022/06/08 01:06:36;;;;;;;8.45;2.85;;;;;;;14.28;47.32;100893.63;5080399;28;20131;-74
2022/06/08 01:09:02;;;;;;;7.10;2.63;;;;;;;14.28;47.86;100893.63;5060246;28;20036;-75
2022/06/08 01:11:43;;;;;;;5.43;2.70;;;;;;;14.27;47.40;100894.75;5053069;28;20395;-76
2022/06/08 01:14:12;;;;;;;8.27;2.70;;;;;;;14.25;47.72;100885.97;5086125;28;20075;-77
2022/06/08 01:16:44;;;;;;;9.45;2.53;;;;;;;14.24;47.84;100895.38;5085110;28;20060;-75
2022/06/08 01:19:11;;;;;;;10.98;3.05;;;;;;;14.23;47.66;100896.47;5072187;28;20617;-76
2022/06/08 01:21:36;;;;;;;7.07;3.20;;;;;;;14.20;46.97;100895.13;5072615;28;20090;-76
2022/06/08 01:24:11;;;;;;;4.50;2.35;;;;;;;14.19;47.81;100893.47;5069993;28;20036;-75
2022/06/08 01:27:06;;;;;;;5.47;3.67;;;;;;;14.23;48.09;100891.78;5052234;28;20040;-75
2022/06/08 01:29:40;;;;;;;5.25;2.10;;;;;;;14.24;46.62;100890.66;5062451;28;20593;-76
2022/06/08 01:32:40;;;;;;;5.85;2.30;;;;;;;14.25;47.74;100892.31;5067981;28;20047;-75
2022/06/08 01:35:22;;;;;;;8.43;2.90;;;;;;;14.23;47.27;100880.75;5070156;28;20051;-76
2022/06/08 01:38:03;;;;;;;3.97;2.50;;;;;;;14.23;47.62;100885.41;5084137;28;20486;-76
2022/06/08 01:41:06;;;;;;;5.28;2.30;;;;;;;14.23;47.43;100880.75;5085788;28;20047;-79
2022/06/08 01:44:02;;;;;;;5.28;2.03;;;;;;;14.26;47.62;100879.31;5070507;28;20704;-76
2022/06/08 01:46:32;;;;;;;5.22;2.22;;;;;;;14.26;47.75;100882.09;5054746;28;20068;-77
2022/06/08 01:49:13;;;;;;;5.60;2.15;;;;;;;14.26;47.09;100879.31;5085232;28;20046;-77
2022/06/08 01:52:13;;;;;;;2.58;1.95;;;;;;;14.28;47.66;100877.06;5067884;28;20036;-76
2022/06/08 01:54:54;;;;;;;3.17;1.67;;;;;;;14.38;46.84;100883.25;5053374;28;20055;-75
2022/06/08 01:57:27;;;;;;;5.25;2.50;;;;;;;14.48;47.08;100883.13;5079531;28;20039;-75
2022/06/08 02:00:18;;;;;;;4.90;2.15;;;;;;;14.61;46.34;100875.19;5078536;28;20048;-76
2022/06/08 02:03:09;;;;;;;7.10;2.05;;;;;;;14.67;46.89;100874.78;5076078;28;20090;-78
2022/06/08 02:05:38;;;;;;;2.60;1.83;;;;;;;14.78;45.79;100870.72;5060507;28;20041;-76
2022/06/08 02:08:10;;;;;;;3.58;1.60;;;;;;;14.89;46.09;100881.59;5069229;28;20491;-73
2022/06/08 02:10:51;;;;;;;5.07;1.85;;;;;;;15.02;45.17;100872.50;5069640;28;20044;-75
2022/06/08 02:13:23;;;;;;;2.05;1.58;;;;;;;15.14;45.31;100880.31;5077630;28;20040;-75
2022/06/08 02:15:53;;;;;;;5.32;1.70;;;;;;;15.29;44.63;100878.06;5067601;28;20119;-76
2022/06/08 02:18:24;;;;;;;3.50;1.85;;;;;;;15.45;44.19;100883.28;5079589;28;20109;-75
2022/06/08 02:20:51;;;;;;;2.63;1.52;;;;;;;15.59;44.51;100889.63;5065371;28;20036;-76
2022/06/08 02:23:22;;;;;;;4.13;1.90;;;;;;;15.77;44.15;100891.47;5078166;28;20035;-78
2022/06/08 02:25:58;;;;;;;5.38;1.70;;;;;;;15.85;43.84;100893.50;5071623;28;20041;-74
2022/06/08 02:28:29;;;;;;;2.67;1.80;;;;;;;15.95;43.45;100884.16;5070628;28;20070;-73
2022/06/08 02:30:59;;;;;;;2.95;1.33;;;;;;;16.02;43.41;100897.59;5073205;28;20036;-73
2022/06/08 02:36:30;;;;;;;3.53;1.63;;;;;;;16.31;43.23;100884.13;5059211;28;20125;-78
2022/06/08 02:38:59;;;;;;;;;;;;;;;16.40;43.66;100884.22;5062763;28;20074;-75
2022/06/08 02:41:26;;;;;;;3.13;1.60;;;;;;;16.45;43.46;100886.84;5048820;28;19916;-75
2022/06/08 02:43:57;;;;;;;3.28;1.60;;;;;;;16.48;43.50;100889.00;5065631;28;20291;-74
2022/06/08 02:46:40;;;;;;;2.90;2.22;;;;;;;16.49;43.71;100891.47;5064613;28;20051;-74
2022/06/08 02:49:07;;;;;;;8.25;2.60;;;;;;;16.50;43.62;100890.34;5081233;28;20037;-75
2022/06/08 02:51:36;;;;;;;6.38;2.35;;;;;;;16.54;43.84;100887.75;5071631;28;20510;-75
2022/06/08 02:54:07;;;;;;;6.55;2.63;;;;;;;16.66;43.64;100882.47;5074006;28;20492;-74
2022/06/08 02:57:05;;;;;;;6.82;2.25;;;;;;;16.74;43.85;100887.28;5069661;28;20086;-75
2022/06/08 02:59:38;;;;;;;7.07;2.55;;;;;;;16.78;43.83;100884.69;5070815;28;20057;-75
2022/06/08 03:02:09;;;;;;;5.38;2.60;;;;;;;16.81;43.82;100890.41;5077198;28;20036;-73
2022/06/08 03:04:43;;;;;;;6.20;2.83;;;;;;;16.93;44.01;100877.91;5074764;28;20083;-76
2022/06/08 03:07:16;;;;;;;4.18;2.33;;;;;;;17.06;43.78;100877.00;5074525;28;20135;-76
2022/06/08 03:09:43;;;;;;;3.42;2.47;;;;;;;17.01;43.53;100882.66;5081167;28;20068;-74
2022/06/08 03:12:38;;;;;;;6.20;3.47;;;;;;;16.97;43.11;100887.22;5071329;28;20352;-76
2022/06/08 03:15:06;;;;;;;5.40;2.97;;;;;;;16.92;43.31;100879.88;5072633;28;20036;-76
2022/06/08 03:17:34;;;;;;;3.40;2.27;;;;;;;16.98;42.91;100886.09;5089154;28;20263;-75
2022/06/08 03:20:01;;;;;;;3.17;2.10;;;;;;;17.05;43.68;100889.25;5069935;28;20558;-76
2022/06/08 03:22:28;;;;;;;3.85;2.22;;;;;;;17.16;43.24;100896.94;5067583;28;20061;-75
2022/06/08 03:24:55;;;;;;;8.80;2.65;;;;;;;17.23;42.44;100888.19;5058423;28;20411;-75
2022/06/08 03:27:21;;;;;;;2.88;2.25;;;;;;;17.23;42.46;100881.81;5090887;28;20036;-75
2022/06/08 03:29:52;;;;;;;3.92;2.90;;;;;;;17.32;42.46;100880.69;5090530;28;20380;-78
2022/06/08 03:32:18;;;;;;;5.00;2.15;;;;;;;17.56;41.40;100883.09;5063033;28;20029;-76
2022/06/08 03:34:43;;;;;;;4.47;2.40;;;;;;;17.62;41.48;100870.69;5075084;28;20037;-77
2022/06/08 03:37:10;;;;;;;3.65;2.17;;;;;;;17.85;41.61;100885.28;5077804;28;20063;-76
2022/06/08 03:39:40;;;;;;;4.85;1.98;;;;;;;18.01;40.84;100877.31;5091353;28;20040;-75
2022/06/08 03:42:06;;;;;;;5.82;2.92;;;;;;;18.20;40.50;100879.75;5084494;28;20032;-75
2022/06/08 03:44:32;;;;;;;4.47;2.30;;;;;;;18.29;39.76;100883.38;5091835;28;20067;-74
2022/06/08 03:47:05;;;;;;;4.75;1.90;;;;;;;18.27;39.50;100872.59;5090054;28;20119;-76
2022/06/08 03:49:31;;;;;;;5.28;2.25;;;;;;;18.46;39.68;100877.00;5085565;28;20063;-75
2022/06/08 03:51:58;;;;;;;3.55;2.25;;;;;;;18.60;39.08;100869.28;5075770;28;20100;-76
2022/06/08 03:54:27;;;;;;;5.60;2.22;;;;;;;18.75;38.58;100877.16;5074451;28;20037;-75
2022/06/08 03:57:19;;;;;;;5.07;2.13;;;;;;;19.01;38.40;100881.81;5098233;28;20040;-75
2022/06/08 03:59:47;;;;;;;6.88;2.67;;;;;;;19.27;37.85;100877.00;5071376;28;20056;-75
2022/06/08 04:02:15;;;;;;;9.13;3.10;;;;;;;19.33;37.03;100883.16;5071519;28;20044;-76
2022/06/08 04:04:43;;;;;;;6.97;2.70;;;;;;;19.39;36.39;100879.84;5071116;28;20036;-76
2022/06/08 04:07:10;;;;;;;8.65;2.58;;;;;;;19.49;35.79;100873.94;5071162;28;20139;-77
2022/06/08 04:09:39;;;;;;;6.43;2.45;;;;;;;19.65;36.11;100881.75;5072225;28;20579;-76
2022/06/08 04:12:05;;;;;;;4.75;2.22;;;;;;;19.70;35.51;100878.75;5089430;28;20036;-76
2022/06/08 04:14:31;;;;;;;4.85;2.67;;;;;;;19.85;35.78;100876.19;5091554;28;20032;-75
2022/06/08 04:16:57;;;;;;;6.05;2.20;;;;;;;19.93;35.24;100871.72;5086305;28;20044;-77
2022/06/08 04:19:24;;;;;;;4.15;1.98;;;;;;;20.04;35.32;100872.94;5073603;28;20032;-76
2022/06/08 04:21:50;;;;;;;3.97;1.40;;;;;;;20.38;34.60;100883.00;5076365;28;20457;-70
2022/06/08 04:24:17;;;;;;;4.50;2.20;;;;;;;20.52;34.13;100882.75;5085911;28;20352;-71
2022/06/08 04:26:49;;;;;;;2.67;1.27;;;;;;;20.45;33.93;100876.88;5085008;28;20121;-76
2022/06/08 04:29:21;;;;;;;4.90;1.10;;;;;;;20.49;34.04;100877.84;5075419;28;20205;-73
2022/06/08 04:31:48;;;;;;;3.08;1.38;;;;;;;20.54;34.14;100874.03;5087147;28;20036;-73
2022/06/08 04:34:17;;;;;;;1.70;1.20;;;;;;;20.60;33.97;100879.03;5078755;28;20033;-77
2022/06/08 04:36:44;;;;;;;1.48;1.08;;;;;;;20.88;33.78;100878.44;5062421;28;20177;-72
2022/06/08 04:39:12;;;;;;;2.88;1.02;;;;;;;20.87;33.85;100872.06;5091070;28;20130;-72
2022/06/08 04:41:43;;;;;;;3.63;1.33;;;;;;;21.23;32.75;100871.31;5090797;28;20036;-72
2022/06/08 04:44:10;;;;;;;2.40;1.20;;;;;;;21.41;32.52;100862.72;5090584;28;20058;-72
2022/06/08 04:46:37;;;;;;;1.77;1.30;;;;;;;21.60;32.24;100872.16;5091994;28;20118;-72
2022/06/08 04:49:05;;;;;;;2.20;1.95;;;;;;;21.69;31.52;100872.00;5086338;28;20390;-71
2022/06/08 04:51:33;;;;;;;2.97;1.33;;;;;;;21.70;31.91;100868.09;5090652;28;20044;-71
2022/06/08 04:53:59;;;;;;;1.80;1.20;;;;;;;22.06;31.05;100867.22;5074447;28;20039;-71
2022/06/08 04:56:25;;;;;;;2.15;1.40;;;;;;;22.23;31.66;100866.13;5090860;28;20043;-72
2022/06/08 04:58:54;;;;;;;;;;;;;;;22.56;31.72;100877.88;5090883;28;20520;-72
2022/06/08 05:01:22;;;;;;;1.20;1.08;;;;;;;22.82;30.74;100874.63;5090512;28;19943;-72
2022/06/08 05:03:50;;;;;;;2.17;1.07;;;;;;;22.76;30.26;100867.66;5079525;28;20040;-71
2022/06/08 05:06:17;;;;;;;4.78;1.48;;;;;;;22.99;30.63;100873.47;5063750;28;20050;-71
2022/06/08 05:08:43;;;;;;;1.40;0.98;;;;;;;23.16;30.15;100873.13;5078241;28;20040;-72
2022/06/08 05:11:09;;;;;;;2.60;1.50;;;;;;;23.50;30.11;100865.16;5070105;28;20040;-72
2022/06/08 05:13:36;;;;;;;4.13;1.40;;;;;;;23.32;29.74;100875.94;5074812;28;20453;-72
2022/06/08 05:16:06;;;;;;;1.30;1.20;;;;;;;23.12;30.72;100871.41;5070171;28;20051;-72
2022/06/08 05:18:35;;;;;;;2.60;1.30;;;;;;;23.12;30.53;100875.03;5070606;28;20131;-71
2022/06/08 05:21:03;;;;;;;1.50;1.23;;;;;;;23.24;30.54;100873.31;5069988;28;20046;-71
2022/06/08 05:23:34;;;;;;;2.17;1.03;;;;;;;23.22;30.38;100873.66;5069601;28;20040;-71
2022/06/08 05:26:04;;;;;;;2.38;1.05;;;;;;;23.07;30.57;100874.47;5080737;28;20502;-71
2022/06/08 05:28:30;;;;;;;6.55;1.42;;;;;;;23.03;30.57;100891.19;5089964;28;20131;-73
2022/06/08 05:30:58;;;;;;;2.25;1.30;;;;;;;22.99;30.51;100879.06;5081867;28;20449;-72
2022/06/08 05:33:28;;;;;;;4.32;1.20;;;;;;;23.03;29.80;100871.59;5069593;28;20032;-73
2022/06/08 05:35:58;;;;;;;3.00;1.45;;;;;;;23.07;30.56;100869.69;5053012;28;20032;-72
2022/06/08 05:38:24;;;;;;;8.32;1.48;;;;;;;23.14;29.75;100871.88;5070736;28;20043;-70
2022/06/08 05:40:49;;;;;;;4.47;1.27;;;;;;;23.20;30.16;100875.19;5069836;28;20041;-72
2022/06/08 05:43:16;;;;;;;3.45;1.20;;;;;;;23.42;29.31;100871.75;5052978;28;20041;-70
2022/06/08 05:45:47;;;;;;;3.92;1.30;;;;;;;23.61;30.11;100868.28;5089573;28;20219;-71
2022/06/08 05:48:14;;;;;;;2.15;1.70;;;;;;;23.70;30.12;100869.69;5089883;28;20122;-72
2022/06/08 05:50:42;;;;;;;1.75;1.08;;;;;;;23.87;29.11;100864.84;5080845;28;20043;-71
2022/06/08 05:53:11;;;;;;;3.08;1.15;;;;;;;24.10;29.11;100867.75;5069829;28;20045;-72
2022/06/08 05:55:37;;;;;;;7.15;1.20;;;;;;;23.95;28.54;100858.22;5069994;28;20437;-71
2022/06/08 05:58:03;;;;;;;1.27;1.17;;;;;;;23.82;29.05;100863.16;5079494;28;20036;-72
2022/06/08 06:00:33;;;;;;;3.70;1.15;;;;;;;23.96;29.51;100865.47;5089526;28;20131;-72
2022/06/08 06:03:00;;;;;;;2.80;1.33;;;;;;;24.12;29.23;100857.78;5088448;28;20044;-72
2022/06/08 06:05:29;;;;;;;1.25;1.00;;;;;;;24.05;29.05;100866.06;5070265;28;20037;-72
2022/06/08 06:07:59;;;;;;;3.13;1.30;;;;;;;23.79;28.65;100851.88;5071615;28;20028;-72
2022/06/08 06:10:31;;;;;;;1.50;1.10;;;;;;;23.82;29.44;100851.13;5072597;28;20075;-72
2022/06/08 06:12:58;;;;;;;3.08;1.10;;;;;;;23.90;28.82;100855.72;5081287;28;20044;-72
2022/06/08 06:15:34;;;;;;;6.00;1.00;;;;;;;23.82;28.96;100851.13;5075638;28;20124;-72
2022/06/08 06:18:00;;;;;;;3.17;1.08;;;;;;;23.66;29.02;100859.56;5069524;28;20139;-72
2022/06/08 06:20:26;;;;;;;2.92;1.20;;;;;;;23.52;29.35;100851.59;5079425;28;20531;-72
2022/06/08 06:23:04;;;;;;;4.07;1.05;;;;;;;23.73;29.36;100857.75;5069247;28;20406;-72
2022/06/08 06:25:56;;;;;;;2.58;1.30;;;;;;;24.05;29.32;100852.84;5069624;28;20045;-72
2022/06/08 06:28:45;;;;;;;1.33;0.95;;;;;;;24.22;28.64;100842.41;5066692;28;20056;-72
2022/06/08 06:31:24;;;;;;;3.00;1.13;;;;;;;24.19;29.23;100849.56;5083887;28;20123;-72
2022/06/08 06:34:00;;;;;;;3.78;1.30;;;;;;;24.13;28.83;100837.03;5071564;28;20635;-72
2022/06/08 06:36:27;;;;;;;4.22;1.20;;;;;;;24.02;28.38;100844.38;5086225;28;20043;-72
2022/06/08 06:38:53;;;;;;;2.10;0.98;;;;;;;23.86;29.10;100844.44;5075197;28;20410;-71
2022/06/08 06:41:19;;;;;;;4.28;1.20;;;;;;;23.94;29.07;100848.19;5082946;28;20490;-71
2022/06/08 06:43:48;;;;;;;2.45;1.23;;;;;;;23.83;29.55;100842.38;5080549;28;20483;-71
2022/06/08 06:46:21;;;;;;;6.78;1.40;;;;;;;23.97;28.66;100833.47;5078644;28;20040;-71
2022/06/08 06:49:01;;;;;;;2.38;1.15;;;;;;;23.79;29.34;100840.66;5070342;28;20086;-71
2022/06/08 06:51:27;;;;;;;1.50;1.08;;;;;;;23.46;28.87;100834.28;5068901;28;20520;-71
2022/06/08 06:53:54;;;;;;;1.73;1.15;;;;;;;23.56;29.31;100832.09;5080225;28;20414;-71
2022/06/08 06:56:20;;;;;;;1.58;1.30;;;;;;;23.77;28.84;100827.81;5081703;28;20036;-72
2022/06/08 06:58:57;;;;;;;;;;;;;;;24.01;28.99;100825.94;5079204;28;20439;-72
2022/06/08 07:01:25;;;;;;;6.70;1.10;;;;;;;24.25;29.26;100817.22;5095494;28;20347;-71
2022/06/08 07:03:51;;;;;;;1.88;1.02;;;;;;;24.48;29.08;100819.31;5068540;28;20037;-71
2022/06/08 07:06:17;;;;;;;3.22;1.10;;;;;;;24.68;28.73;100806.88;5071086;28;20037;-72
2022/06/08 07:08:44;;;;;;;2.03;1.15;;;;;;;24.80;28.20;100815.09;5085990;28;20043;-71
2022/06/08 07:13:59;;;;;;;3.50;1.00;;;;;;;24.86;28.40;100808.00;5080567;28;20472;-71
2022/06/08 07:16:27;;;;;;;4.75;1.20;;;;;;;24.81;27.41;100813.91;5055886;28;20047;-71
2022/06/08 07:18:53;;;;;;;2.75;1.10;;;;;;;24.89;27.29;100801.63;5085704;28;20036;-73
2022/06/08 07:21:19;;;;;;;2.22;1.00;;;;;;;24.99;27.30;100830.25;5077948;28;20036;-71
2022/06/08 07:23:45;;;;;;;3.60;1.10;;;;;;;24.92;26.98;100812.13;5088637;28;20035;-71
2022/06/08 07:26:11;;;;;;;1.55;1.00;;;;;;;24.62;28.31;100808.34;5075475;28;20499;-71
2022/06/08 07:28:38;;;;;;;1.75;0.95;;;;;;;24.28;27.80;100802.44;5076320;28;20075;-71
2022/06/08 07:31:03;;;;;;;4.47;1.10;;;;;;;24.13;28.00;100813.78;5075435;28;20143;-71
2022/06/08 07:33:29;;;;;;;2.05;0.85;;;;;;;24.08;28.23;100803.66;5075861;28;20040;-71
2022/06/08 07:35:55;;;;;;;2.33;1.10;;;;;;;24.21;28.60;100807.13;5075396;28;20499;-71
2022/06/08 07:38:21;;;;;;;2.92;0.98;;;;;;;24.33;28.00;100799.41;5075823;28;20056;-71
2022/06/08 07:40:47;;;;;;;1.75;1.00;;;;;;;24.43;28.05;100809.19;5086712;28;20044;-71
2022/06/08 07:43:13;;;;;;;1.02;0.90;;;;;;;24.31;28.47;100800.97;5077470;28;20040;-71
2022/06/08 07:45:39;;;;;;;1.23;0.90;;;;;;;24.23;27.76;100794.34;5072836;28;20044;-71
2022/06/08 07:50:49;;;;;;;4.30;1.00;;;;;;;24.60;27.83;100799.50;5091286;28;20036;-71
2022/06/08 07:53:15;;;;;;;1.52;1.00;;;;;;;24.64;27.90;100797.56;5085671;28;20041;-71
2022/06/08 07:55:41;;;;;;;3.42;0.90;;;;;;;24.78;27.99;100802.63;5086183;28;20750;-71
2022/06/08 07:58:07;;;;;;;1.05;0.80;;;;;;;25.09;27.25;100798.78;5074958;28;20484;-71
2022/06/08 08:00:34;;;;;;;1.25;1.10;;;;;;;25.23;27.56;100785.78;5088062;28;20520;-72
2022/06/08 08:02:59;;;;;;;4.72;0.90;;;;;;;25.14;27.31;100795.66;5079571;28;20128;-72
2022/06/08 08:05:26;;;;;;;2.38;0.95;;;;;;;25.00;27.68;100798.25;5066083;28;20116;-72
2022/06/08 08:07:52;;;;;;;2.78;1.10;;;;;;;24.88;27.71;100782.38;5084678;28;20467;-72
2022/06/08 08:10:24;;;;;;;3.08;1.20;;;;;;;24.87;28.01;100789.97;5077842;28;20036;-71
2022/06/08 08:12:50;;;;;;;3.50;1.30;;;;;;;24.94;28.16;100786.47;5088145;28;20115;-72
2022/06/08 08:15:17;;;;;;;5.45;1.10;;;;;;;24.94;28.36;100784.47;5086628;28;20128;-76
2022/06/08 08:17:43;;;;;;;4.90;1.27;;;;;;;25.07;28.07;100787.13;5089964;28;20047;-76
2022/06/08 08:20:11;;;;;;;2.78;1.20;;;;;;;25.13;27.83;100780.00;5085906;28;20040;-76
2022/06/08 08:22:37;;;;;;;4.32;1.40;;;;;;;25.02;28.42;100784.63;5072175;28;20037;-76
2022/06/08 08:25:03;;;;;;;4.32;1.45;;;;;;;24.94;28.65;100781.66;5086118;28;20054;-75
2022/06/08 08:27:28;;;;;;;2.85;1.00;;;;;;;24.74;27.09;100787.72;5086964;28;20507;-74
2022/06/08 08:29:54;;;;;;;2.90;1.17;;;;;;;24.55;28.37;100797.00;5080589;28;20036;-75
2022/06/08 08:32:19;;;;;;;2.45;1.15;;;;;;;24.39;28.72;100791.50;5104161;28;20032;-74
2022/06/08 08:34:45;;;;;;;2.72;1.10;;;;;;;24.19;28.29;100785.06;5090957;28;20048;-75
2022/06/08 08:37:10;;;;;;;1.63;1.17;;;;;;;24.08;28.27;100788.81;5086611;28;20585;-74
2022/06/08 08:39:36;;;;;;;1.70;0.98;;;;;;;23.89;29.04;100786.81;5083624;28;20041;-74
2022/06/08 08:42:21;;;;;;;5.25;1.35;;;;;;;23.83;28.60;100775.09;5086648;28;20073;-75
2022/06/08 08:44:49;;;;;;;3.83;1.35;;;;;;;24.06;28.49;100764.75;5082449;28;20134;-75
2022/06/08 08:47:39;;;;;;;3.55;1.00;;;;;;;24.24;28.92;100767.94;5084405;28;20097;-73
2022/06/08 08:50:18;;;;;;;2.10;1.60;;;;;;;24.21;28.19;100762.25;5088747;28;20036;-75
2022/06/08 08:52:54;;;;;;;1.05;0.80;;;;;;;24.14;28.88;100768.53;5077965;28;20033;-74
2022/06/08 08:55:29;;;;;;;2.40;1.05;;;;;;;24.00;28.82;100762.63;5085852;28;20071;-75
2022/06/08 08:58:03;;;;;;;0.98;0.98;;;;;;;23.86;28.98;100759.53;5070027;28;20082;-75
2022/06/08 09:00:38;;;;;;;1.73;1.15;;;;;;;23.70;29.12;100757.59;5076223;28;20184;-75
2022/06/08 09:03:18;;;;;;;2.03;0.90;;;;;;;23.52;29.72;100764.78;5079830;28;20044;-75
2022/06/08 09:05:48;;;;;;;2.25;1.05;;;;;;;23.30;29.74;100765.47;5056187;28;20093;-75
2022/06/08 09:08:16;;;;;;;5.88;1.48;;;;;;;23.16;29.71;100772.34;5082999;28;20098;-75
2022/06/08 09:10:43;;;;;;;1.98;0.77;;;;;;;22.95;30.10;100769.03;5086510;28;20032;-75
2022/06/08 09:13:11;;;;;;;3.72;1.25;;;;;;;22.84;30.34;100762.34;5082116;28;20097;-75
2022/06/08 09:15:54;;;;;;;2.47;0.93;;;;;;;22.75;30.70;100770.91;5088017;28;20734;-75
2022/06/08 09:18:41;;;;;;;3.33;1.67;;;;;;;22.61;30.89;100764.13;5083369;28;20903;-75
2022/06/08 09:21:32;;;;;;;2.22;0.80;;;;;;;22.52;30.84;100753.09;5071841;28;20042;-75
2022/06/08 09:24:27;;;;;;;1.80;1.10;;;;;;;22.46;31.01;100755.34;5089514;28;20410;-75
2022/06/08 09:26:57;;;;;;;2.83;1.27;;;;;;;22.41;31.68;100755.63;5080023;28;20131;-75
2022/06/08 09:29:26;;;;;;;2.85;0.88;;;;;;;22.32;31.78;100749.38;5083052;28;20040;-75
2022/06/08 09:31:55;;;;;;;2.30;1.30;;;;;;;22.33;31.07;100750.16;5052959;28;20131;-75
2022/06/08 09:34:40;;;;;;;1.95;0.95;;;;;;;22.33;31.93;100753.78;5081648;28;20040;-75
2022/06/08 09:37:12;;;;;;;4.70;1.48;;;;;;;22.36;31.35;100746.66;5083749;28;20042;-75
2022/06/08 09:39:40;;;;;;;1.80;1.20;;;;;;;22.31;31.56;100736.56;5055221;28;20265;-75
2022/06/08 09:42:33;;;;;;;1.67;1.13;;;;;;;22.24;31.88;100751.16;5081820;28;20028;-75
2022/06/08 09:45:43;;;;;;;2.60;1.10;;;;;;;22.19;32.16;100740.22;5091207;28;20035;-75
2022/06/08 09:51:49;;;;;;;2.33;0.95;;;;;;;22.13;31.95;100732.47;5082394;28;20083;-75
2022/06/08 09:54:37;;;;;;;2.45;1.05;;;;;;;22.11;32.29;100738.41;5074137;28;20040;-75
2022/06/08 09:57:20;;;;;;;0.85;0.82;;;;;;;22.06;32.75;100732.28;5087334;28;20041;-75
2022/06/08 10:00:17;;;;;;;2.33;1.50;;;;;;;21.90;32.04;100732.19;5084060;28;20044;-75
2022/06/08 10:03:24;;;;;;;0.88;0.77;;;;;;;21.90;32.30;100724.63;5068543;28;20076;-75
2022/06/08 10:06:03;;;;;;;2.67;1.30;;;;;;;21.94;32.44;100719.94;5052290;28;20052;-75
2022/06/08 10:08:53;;;;;;;2.35;1.10;;;;;;;21.94;32.40;100719.94;5068630;28;20070;-75
2022/06/08 10:11:37;;;;;;;4.03;1.20;;;;;;;21.87;32.80;100719.75;5067998;28;20486;-75
2022/06/08 10:14:15;;;;;;;3.13;1.15;;;;;;;21.80;32.86;100702.75;5087998;28;20040;-75
2022/06/08 10:16:47;;;;;;;2.22;1.02;;;;;;;21.74;32.80;100704.19;5076410;28;20495;-74
2022/06/08 10:19:19;;;;;;;1.08;0.90;;;;;;;21.68;33.09;100706.41;5069141;28;20045;-75
2022/06/08 10:21:45;;;;;;;4.25;1.27;;;;;;;21.70;33.45;100714.47;5073589;28;20040;-75
2022/06/08 10:24:31;;;;;;;3.92;1.42;;;;;;;21.65;32.90;100709.09;5078453;28;20047;-75
2022/06/08 10:27:03;;;;;;;4.10;1.10;;;;;;;21.61;33.67;100722.97;5074121;28;20052;-75
2022/06/08 10:29:40;;;;;;;1.35;1.20;;;;;;;21.57;33.42;100712.88;5069173;28;20040;-75
2022/06/08 10:32:28;;;;;;;1.98;1.05;;;;;;;21.56;33.33;100711.25;5063638;28;20411;-75
2022/06/08 10:34:55;;;;;;;2.75;1.50;;;;;;;21.53;33.32;100709.97;5068151;28;20422;-75
2022/06/08 10:37:27;;;;;;;2.38;0.95;;;;;;;21.54;33.56;100705.19;5086945;28;20040;-75
2022/06/08 10:39:53;;;;;;;2.50;1.13;;;;;;;21.51;33.19;100703.09;5087798;28;20047;-75
2022/06/08 10:42:46;;;;;;;2.05;1.00;;;;;;;21.48;33.62;100693.44;5073911;28;20526;-75
2022/06/08 10:45:21;;;;;;;1.52;1.15;;;;;;;21.45;33.99;100696.13;5093659;28;20662;-75
2022/06/08 10:48:01;;;;;;;1.17;0.93;;;;;;;21.45;34.17;100690.56;5083307;28;20066;-75
2022/06/08 10:50:55;;;;;;;2.03;1.40;;;;;;;21.40;34.29;100683.25;5076817;28;20028;-75
2022/06/08 10:56:23;;;;;;;3.40;1.15;;;;;;;21.42;34.08;100682.91;5081718;28;20040;-75
2022/06/08 10:58:58;;;;;;;1.60;1.13;;;;;;;21.42;33.67;100674.50;5080950;28;20040;-74
2022/06/08 11:01:34;;;;;;;6.00;1.38;;;;;;;21.40;34.13;100676.84;5082404;28;20131;-74
2022/06/08 11:04:02;;;;;;;1.30;1.20;;;;;;;21.40;34.42;100682.44;5057465;28;20051;-74
2022/06/08 11:06:45;;;;;;;1.83;0.90;;;;;;;21.37;34.28;100678.38;5084596;28;20039;-74
2022/06/08 11:09:33;;;;;;;3.05;1.20;;;;;;;21.38;33.95;100676.41;5073927;28;20491;-74
2022/06/08 11:12:17;;;;;;;2.10;1.05;;;;;;;21.46;34.56;100683.81;5087173;28;20059;-74
2022/06/08 11:14:42;;;;;;;1.67;0.90;;;;;;;21.56;34.51;100674.94;5089488;28;20044;-74
2022/06/08 11:17:11;;;;;;;1.67;1.00;;;;;;;21.75;34.26;100682.66;5082456;28;20036;-74
2022/06/08 11:19:37;;;;;;;1.50;1.13;;;;;;;21.89;33.93;100683.06;5078549;28;20032;-74
2022/06/08 11:22:11;;;;;;;1.45;1.13;;;;;;;21.93;34.07;100676.41;5073465;28;20143;-75
2022/06/08 11:24:40;;;;;;;0.85;0.80;;;;;;;21.92;34.27;100680.38;5073386;28;20040;-75
2022/06/08 11:27:09;;;;;;;4.28;1.13;;;;;;;21.92;33.51;100672.00;5084333;28;20481;-75
2022/06/08 11:29:35;;;;;;;3.22;1.27;;;;;;;21.85;34.89;100682.94;5088339;28;20036;-75
2022/06/08 11:32:00;;;;;;;1.83;1.20;;;;;;;21.81;35.11;100665.28;5080028;28;20036;-75
2022/06/08 11:34:48;;;;;;;3.63;1.70;;;;;;;21.70;35.94;100672.56;5073873;28;20090;-75
2022/06/08 11:37:33;;;;;;;2.88;1.20;;;;;;;21.51;36.01;100667.59;5071550;28;20052;-75
2022/06/08 11:40:14;;;;;;;1.70;1.35;;;;;;;21.36;36.28;100671.97;5083166;28;20040;-75
2022/06/08 11:42:46;;;;;;;1.90;1.30;;;;;;;21.31;37.39;100671.41;5075733;28;20043;-75
2022/06/08 11:45:34;;;;;;;1.92;1.38;;;;;;;21.19;37.50;100669.44;5074085;28;20081;-75
2022/06/08 11:48:08;;;;;;;1.45;1.15;;;;;;;21.01;38.78;100659.69;5072377;28;20052;-74
2022/06/08 11:50:58;;;;;;;1.30;1.20;;;;;;;20.85;38.72;100662.38;5074542;28;20028;-75
2022/06/08 11:53:26;;;;;;;2.08;1.30;;;;;;;20.68;39.16;100662.63;5072276;28;20131;-75
2022/06/08 11:56:03;;;;;;;3.33;1.20;;;;;;;20.57;39.09;100656.69;5085860;28;20049;-74
2022/06/08 11:58:30;;;;;;;4.60;1.40;;;;;;;20.45;39.25;100656.69;5084984;28;20051;-74
2022/06/08 12:01:02;;;;;;;4.95;1.23;;;;;;;20.41;39.54;100651.00;5085392;28;20097;-75
2022/06/08 12:03:40;;;;;;;1.85;1.48;;;;;;;20.38;40.03;100653.63;5071990;28;20051;-74
2022/06/08 12:06:13;;;;;;;2.60;1.17;;;;;;;20.31;39.92;100639.47;5085380;28;20499;-74